createdAt,value
2018-02-11T00:01:22.477Z,100220
2018-02-11T00:03:48.555Z,100198
2018-02-11T00:06:14.654Z,100192
2018-02-11T00:08:41.485Z,100181
2018-02-11T00:11:08.013Z,100185
2018-02-11T00:13:34.090Z,100181
2018-02-11T00:16:00.185Z,100164
2018-02-11T00:18:27.025Z,100160
2018-02-11T00:20:53.692Z,100145
2018-02-11T00:23:19.765Z,100147
2018-02-11T00:25:45.846Z,100136
2018-02-11T00:28:11.947Z,100135
2018-02-11T00:30:38.029Z,100120
2018-02-11T00:33:04.127Z,100127
2018-02-11T00:35:30.226Z,100115
2018-02-11T00:38:03.081Z,100120
2018-02-11T00:40:29.153Z,100116
2018-02-11T00:42:55.305Z,100115
2018-02-11T00:45:21.381Z,100106
2018-02-11T00:47:48.219Z,100101
2018-02-11T00:50:15.046Z,100111
2018-02-11T00:52:41.137Z,100105
2018-02-11T00:55:07.220Z,100092
2018-02-11T00:57:33.545Z,100109
2018-02-11T01:00:00.382Z,100092
2018-02-11T01:02:26.462Z,100092
2018-02-11T01:04:52.541Z,100083
2018-02-11T01:07:19.377Z,100084
2018-02-11T01:09:45.481Z,100078
2018-02-11T01:12:11.553Z,100078
2018-02-11T01:14:37.643Z,100078
2018-02-11T01:17:03.742Z,100068
2018-02-11T01:19:29.838Z,100050
2018-02-11T01:21:55.929Z,100049
2018-02-11T01:24:22.045Z,100046
2018-02-11T01:26:48.127Z,100042
2018-02-11T01:29:14.210Z,100027
2018-02-11T01:31:40.337Z,100018
2018-02-11T01:34:06.430Z,100015
2018-02-11T01:36:32.506Z,100026
2018-02-11T01:38:58.594Z,100017
2018-02-11T01:41:25.413Z,100009
2018-02-11T01:43:51.516Z,100001
2018-02-11T01:46:18.152Z,99996
2018-02-11T01:48:44.230Z,99997
2018-02-11T01:51:10.313Z,99995
2018-02-11T01:53:36.381Z,99979
2018-02-11T01:56:02.713Z,99988
2018-02-11T01:58:28.773Z,99982
2018-02-11T02:00:54.897Z,99975
2018-02-11T02:03:20.977Z,99978
2018-02-11T02:05:47.063Z,99956
2018-02-11T02:08:13.786Z,99956
2018-02-11T02:10:39.870Z,99954
2018-02-11T02:13:07.452Z,99943
2018-02-11T02:15:33.538Z,99941
2018-02-11T02:17:59.617Z,99938
2018-02-11T02:20:25.709Z,99932
2018-02-11T02:22:51.805Z,99919
2018-02-11T02:25:18.286Z,99917
2018-02-11T02:27:44.356Z,99917
2018-02-11T02:30:10.467Z,99922
2018-02-11T02:32:36.566Z,99923
2018-02-11T02:35:03.394Z,99909
2018-02-11T02:37:29.483Z,99901
2018-02-11T02:39:55.567Z,99897
2018-02-11T02:42:21.638Z,99893
2018-02-11T02:44:47.726Z,99878
2018-02-11T02:47:13.810Z,99876
2018-02-11T02:49:39.896Z,99876
2018-02-11T02:52:05.990Z,99872
2018-02-11T02:54:32.311Z,99860
2018-02-11T02:56:58.401Z,99853
2018-02-11T02:59:24.493Z,99846
2018-02-11T03:01:50.581Z,99838
2018-02-11T03:04:16.721Z,99836
2018-02-11T03:06:42.833Z,99831
2018-02-11T03:09:09.651Z,99835
2018-02-11T03:11:35.720Z,99821
2018-02-11T03:14:01.805Z,99826
2018-02-11T03:16:27.874Z,99804
2018-02-11T03:18:53.958Z,99804
2018-02-11T03:21:20.513Z,99799
2018-02-11T03:23:46.601Z,99798
2018-02-11T03:26:12.689Z,99777
2018-02-11T03:28:38.757Z,99779
2018-02-11T03:31:04.894Z,99777
2018-02-11T03:33:30.978Z,99771
2018-02-11T03:35:57.074Z,99754
2018-02-11T03:38:23.171Z,99742
2018-02-11T03:40:49.254Z,99742
2018-02-11T03:43:15.337Z,99734
2018-02-11T03:45:41.427Z,99738
2018-02-11T03:48:07.501Z,99718
2018-02-11T03:50:34.330Z,99723
2018-02-11T03:53:00.401Z,99714
2018-02-11T03:55:26.793Z,99703
2018-02-11T03:57:53.600Z,99696
2018-02-11T04:00:20.117Z,99689
2018-02-11T04:02:46.189Z,99694
2018-02-11T04:05:12.266Z,99681
2018-02-11T04:07:38.346Z,99684
2018-02-11T04:10:04.421Z,99674
2018-02-11T04:12:30.500Z,99670
2018-02-11T04:14:57.308Z,99663
2018-02-11T04:17:23.387Z,99667
2018-02-11T04:19:49.470Z,99652
2018-02-11T04:22:15.558Z,99648
2018-02-11T04:24:41.644Z,99637
2018-02-11T04:27:08.537Z,99634
2018-02-11T04:29:34.610Z,99628
2018-02-11T04:32:00.679Z,99616
2018-02-11T04:34:27.022Z,99605
2018-02-11T04:36:53.106Z,99604
2018-02-11T04:39:19.185Z,99591
2018-02-11T04:41:45.279Z,99579
2018-02-11T04:44:11.363Z,99574
2018-02-11T04:46:38.186Z,99554
2018-02-11T04:49:04.258Z,99560
2018-02-11T04:51:30.337Z,99549
2018-02-11T04:53:56.998Z,99549
2018-02-11T04:56:23.081Z,99532
2018-02-11T04:58:49.207Z,99520
2018-02-11T05:01:15.309Z,99527
2018-02-11T05:03:41.393Z,99511
2018-02-11T05:06:07.473Z,99500
2018-02-11T05:08:33.550Z,99482
2018-02-11T05:11:00.447Z,99482
2018-02-11T05:13:26.585Z,99482
2018-02-11T05:15:52.661Z,99481
2018-02-11T05:18:18.749Z,99466
2018-02-11T05:20:44.825Z,99466
2018-02-11T05:23:10.921Z,99459
2018-02-11T05:25:37.007Z,99464
2018-02-11T05:28:03.094Z,99448
2018-02-11T05:30:29.182Z,99449
2018-02-11T05:32:56.019Z,99449
2018-02-11T05:35:22.106Z,99450
2018-02-11T05:37:48.177Z,99448
2018-02-11T05:40:15.005Z,99438
2018-02-11T05:42:41.081Z,99418
2018-02-11T05:45:07.165Z,99406
2018-02-11T05:47:33.252Z,99394
2018-02-11T05:49:59.325Z,99395
2018-02-11T05:52:26.153Z,99383
2018-02-11T05:54:52.229Z,99380
2018-02-11T05:57:18.313Z,99373
2018-02-11T05:59:45.149Z,99372
2018-02-11T06:02:11.237Z,99359
2018-02-11T06:04:37.314Z,99357
2018-02-11T06:07:03.397Z,99358
2018-02-11T06:09:29.470Z,99359
2018-02-11T06:11:56.281Z,99350
2018-02-11T06:14:22.380Z,99329
2018-02-11T06:16:48.863Z,99333
2018-02-11T06:19:14.939Z,99331
2018-02-11T06:21:41.018Z,99333
2018-02-11T06:24:07.846Z,99320
2018-02-11T06:26:43.913Z,99323
2018-02-11T06:29:10.737Z,99299
2018-02-11T06:31:36.813Z,99296
2018-02-11T06:34:02.877Z,99295
2018-02-11T06:36:28.970Z,99286
2018-02-11T06:38:55.109Z,99280
2018-02-11T06:41:21.202Z,99271
2018-02-11T06:43:47.293Z,99267
2018-02-11T06:46:13.373Z,99268
2018-02-11T06:48:39.444Z,99264
2018-02-11T06:51:06.257Z,99260
2018-02-11T06:53:32.337Z,99257
2018-02-11T06:55:58.417Z,99241
2018-02-11T06:58:24.498Z,99245
2018-02-11T07:00:50.585Z,99248
2018-02-11T07:03:16.669Z,99227
2018-02-11T07:05:42.737Z,99259
2018-02-11T07:08:08.848Z,99237
2018-02-11T07:10:34.969Z,99233
2018-02-11T07:13:01.046Z,99230
2018-02-11T07:15:27.146Z,99220
2018-02-11T07:17:53.962Z,99218
2018-02-11T07:20:20.061Z,99209
2018-02-11T07:22:46.149Z,99205
2018-02-11T07:25:12.235Z,99195
2018-02-11T07:27:38.329Z,99201
2018-02-11T07:30:04.405Z,99203
2018-02-11T07:32:30.570Z,99189
2018-02-11T07:34:56.696Z,99189
2018-02-11T07:37:22.862Z,99204
2018-02-11T07:39:48.950Z,99185
2018-02-11T07:42:15.014Z,99183
2018-02-11T07:44:41.095Z,99181
2018-02-11T07:47:07.180Z,99182
2018-02-11T07:49:33.254Z,99178
2018-02-11T07:51:59.325Z,99175
2018-02-11T07:54:25.806Z,99178
2018-02-11T07:56:51.911Z,99185
2018-02-11T07:59:18.750Z,99176
2018-02-11T08:01:45.573Z,99166
2018-02-11T08:04:11.646Z,99173
2018-02-11T08:06:37.812Z,99164
2018-02-11T08:09:03.889Z,99160
2018-02-11T08:11:29.966Z,99144
2018-02-11T08:13:56.054Z,99152
2018-02-11T08:16:22.169Z,99145
2018-02-11T08:18:48.243Z,99141
2018-02-11T08:21:14.335Z,99145
2018-02-11T08:23:40.437Z,99142
2018-02-11T08:26:06.511Z,99136
2018-02-11T08:28:32.601Z,99129
2018-02-11T08:30:58.680Z,99136
2018-02-11T08:33:24.758Z,99116
2018-02-11T08:35:50.821Z,99130
2018-02-11T08:38:16.913Z,99122
2018-02-11T08:40:42.983Z,99109
2018-02-11T08:43:09.066Z,99120
2018-02-11T08:45:35.159Z,99112
2018-02-11T08:48:01.262Z,99105
2018-02-11T08:50:27.652Z,99090
2018-02-11T08:52:53.778Z,99095
2018-02-11T08:55:19.925Z,99079
2018-02-11T08:57:46.058Z,99084
2018-02-11T09:00:12.138Z,99069
2018-02-11T09:02:38.221Z,99088
2018-02-11T09:05:04.309Z,99081
2018-02-11T09:07:30.445Z,99085
2018-02-11T09:09:56.621Z,99078
2018-02-11T09:12:23.438Z,99079
2018-02-11T09:14:49.509Z,99035
2018-02-11T09:17:15.963Z,99073
2018-02-11T09:19:42.040Z,99073
2018-02-11T09:22:08.138Z,99067
2018-02-11T09:24:34.214Z,99061
2018-02-11T09:27:00.348Z,99060
2018-02-11T09:29:26.433Z,99080
2018-02-11T09:31:52.511Z,99070
2018-02-11T09:34:18.586Z,99068
2018-02-11T09:36:44.673Z,99062
2018-02-11T09:39:10.741Z,99059
2018-02-11T09:41:36.813Z,99067
2018-02-11T09:44:02.881Z,99070
2018-02-11T09:46:28.954Z,99066
2018-02-11T09:48:55.037Z,99075
2018-02-11T09:51:21.861Z,99065
2018-02-11T09:53:47.966Z,99061
2018-02-11T09:56:14.537Z,99074
2018-02-11T09:58:40.703Z,99082
2018-02-11T10:01:07.478Z,99093
2018-02-11T10:03:33.563Z,99066
2018-02-11T10:05:59.629Z,99079
2018-02-11T10:08:25.701Z,99072
2018-02-11T10:10:52.285Z,99076
2018-02-11T10:13:18.802Z,99084
2018-02-11T10:15:46.653Z,99078
2018-02-11T10:18:14.975Z,99084
2018-02-11T10:20:41.034Z,99074
2018-02-11T10:23:08.756Z,99077
2018-02-11T10:25:35.854Z,99073
2018-02-11T10:28:03.196Z,99085
2018-02-11T10:30:30.045Z,99075
2018-02-11T10:32:56.117Z,99079
2018-02-11T10:35:25.431Z,99073
2018-02-11T10:37:51.806Z,99070
2018-02-11T10:40:18.630Z,99075
2018-02-11T10:42:44.701Z,99069
2018-02-11T10:45:10.773Z,99056
2018-02-11T10:47:36.852Z,99065
2018-02-11T10:50:02.994Z,99064
2018-02-11T10:52:29.069Z,99059
2018-02-11T10:54:55.173Z,99050
2018-02-11T10:57:21.258Z,99064
2018-02-11T10:59:47.330Z,99068
2018-02-11T11:02:13.414Z,99069
2018-02-11T11:04:40.393Z,99072
2018-02-11T11:07:06.506Z,99066
2018-02-11T11:09:32.588Z,99069
2018-02-11T11:11:58.673Z,99072
2018-02-11T11:14:24.770Z,99063
2018-02-11T11:16:50.852Z,99068
2018-02-11T11:19:16.921Z,99072
2018-02-11T11:21:43.115Z,99069
2018-02-11T11:24:09.186Z,99067
2018-02-11T11:26:35.277Z,99065
2018-02-11T11:29:04.545Z,99064
2018-02-11T11:31:30.660Z,99065
2018-02-11T11:33:56.777Z,99070
2018-02-11T11:36:23.625Z,99075
2018-02-11T11:38:49.690Z,99069
2018-02-11T11:41:15.768Z,99072
2018-02-11T11:43:41.879Z,99073
2018-02-11T11:46:07.946Z,99071
2018-02-11T11:48:34.778Z,99070
2018-02-11T11:51:01.626Z,99084
2018-02-11T11:53:27.673Z,99084
2018-02-11T11:55:53.737Z,99076
2018-02-11T11:58:19.809Z,99076
2018-02-11T12:00:45.901Z,99081
2018-02-11T12:03:11.969Z,99088
2018-02-11T12:05:38.065Z,99102
2018-02-11T12:08:04.893Z,99084
2018-02-11T12:10:30.960Z,99084
2018-02-11T12:12:57.039Z,99079
2018-02-11T12:15:23.139Z,99083
2018-02-11T12:17:49.258Z,99082
2018-02-11T12:20:15.376Z,99077
2018-02-11T12:22:41.461Z,99072
2018-02-11T12:25:08.290Z,99090
2018-02-11T12:27:34.355Z,99074
2018-02-11T12:30:00.478Z,99075
2018-02-11T12:32:26.554Z,99063
2018-02-11T12:34:52.701Z,99078
2018-02-11T12:37:19.545Z,99077
2018-02-11T12:39:45.657Z,99064
2018-02-11T12:42:11.742Z,99070
2018-02-11T12:44:37.822Z,99064
2018-02-11T12:47:03.933Z,99066
2018-02-11T12:49:30.011Z,99069
2018-02-11T12:51:56.077Z,99104
2018-02-11T12:54:22.898Z,99076
2018-02-11T12:56:48.962Z,99072
2018-02-11T12:59:15.773Z,99066
2018-02-11T13:01:41.869Z,99078
2018-02-11T13:04:07.937Z,99080
2018-02-11T13:06:34.022Z,99078
2018-02-11T13:09:00.097Z,99067
2018-02-11T13:11:26.189Z,99077
2018-02-11T13:13:52.292Z,99073
2018-02-11T13:16:18.386Z,99081
2018-02-11T13:18:45.222Z,99085
2018-02-11T13:21:12.062Z,99077
2018-02-11T13:23:38.133Z,99082
2018-02-11T13:26:04.207Z,99085
2018-02-11T13:28:30.277Z,99088
2018-02-11T13:30:56.393Z,99072
2018-02-11T13:33:22.453Z,99076
2018-02-11T13:35:48.522Z,99079
2018-02-11T13:38:14.590Z,99065
2018-02-11T13:40:40.679Z,99064
2018-02-11T13:43:06.782Z,99065
2018-02-11T13:45:32.853Z,99077
2018-02-11T13:47:58.943Z,99072
2018-02-11T13:50:25.041Z,99078
2018-02-11T13:52:51.134Z,99076
2018-02-11T13:55:17.206Z,99074
2018-02-11T13:57:43.346Z,99084
2018-02-11T14:00:10.160Z,99077
2018-02-11T14:02:36.471Z,99079
2018-02-11T14:05:02.599Z,99077
2018-02-11T14:07:28.671Z,99063
2018-02-11T14:09:55.496Z,99066
2018-02-11T14:12:21.566Z,99067
2018-02-11T14:14:47.644Z,99074
2018-02-11T14:17:13.745Z,99076
2018-02-11T14:19:40.213Z,99084
2018-02-11T14:22:06.274Z,99083
2018-02-11T14:24:32.365Z,99085
2018-02-11T14:26:59.182Z,99093
2018-02-11T14:29:25.279Z,99098
2018-02-11T14:31:51.415Z,99139
2018-02-11T14:34:17.486Z,99096
2018-02-11T14:36:43.726Z,99096
2018-02-11T14:39:10.542Z,99094
2018-02-11T14:41:36.616Z,99087
2018-02-11T14:44:02.698Z,99098
2018-02-11T14:46:28.825Z,99101
2018-02-11T14:48:54.930Z,99099
2018-02-11T14:51:20.997Z,99097
2018-02-11T14:53:47.076Z,99104
2018-02-11T14:56:13.149Z,99099
2018-02-11T14:58:39.226Z,99091
2018-02-11T15:01:05.323Z,99094
2018-02-11T15:03:31.402Z,99096
2018-02-11T15:05:57.475Z,99096
2018-02-11T15:08:23.533Z,99095
2018-02-11T15:10:49.606Z,99096
2018-02-11T15:13:15.701Z,99083
2018-02-11T15:15:42.505Z,99083
2018-02-11T15:18:08.575Z,99093
2018-02-11T15:20:35.385Z,99098
2018-02-11T15:23:01.469Z,99090
2018-02-11T15:25:27.534Z,99105
2018-02-11T15:27:53.650Z,99100
2018-02-11T15:30:19.745Z,99104
2018-02-11T15:32:45.937Z,99103
2018-02-11T15:35:12.086Z,99112
2018-02-11T15:37:38.331Z,99119
2018-02-11T15:40:04.398Z,99111
2018-02-11T15:42:30.530Z,99115
2018-02-11T15:44:57.518Z,99117
2018-02-11T15:47:23.589Z,99121
2018-02-11T15:49:49.670Z,99138
2018-02-11T15:52:16.083Z,99129
2018-02-11T15:54:42.959Z,99125
2018-02-11T15:57:09.050Z,99133
2018-02-11T15:59:35.865Z,99142
2018-02-11T16:02:01.950Z,99144
2018-02-11T16:04:28.020Z,99145
2018-02-11T16:06:54.105Z,99150
2018-02-11T16:09:20.177Z,99157
2018-02-11T16:11:47.726Z,99149
2018-02-11T16:14:13.797Z,99157
2018-02-11T16:16:39.873Z,99147
2018-02-11T16:19:05.961Z,99153
2018-02-11T16:21:32.045Z,99153
2018-02-11T16:23:58.145Z,99150
2018-02-11T16:26:24.210Z,99151
2018-02-11T16:28:50.319Z,99146
2018-02-11T16:31:16.392Z,99151
2018-02-11T16:33:42.689Z,99161
2018-02-11T16:36:08.764Z,99170
2018-02-11T16:38:34.833Z,99159
2018-02-11T16:41:01.678Z,99162
2018-02-11T16:43:28.306Z,99159
2018-02-11T16:45:54.381Z,99149
2018-02-11T16:48:20.481Z,99155
2018-02-11T16:50:46.553Z,99162
2018-02-11T16:53:12.625Z,99154
2018-02-11T16:55:39.448Z,99154
2018-02-11T16:58:05.519Z,99159
2018-02-11T17:00:31.586Z,99159
2018-02-11T17:02:57.675Z,99161
2018-02-11T17:05:23.758Z,99168
2018-02-11T17:07:51.007Z,99176
2018-02-11T17:10:17.830Z,99168
2018-02-11T17:12:43.893Z,99176
2018-02-11T17:15:09.966Z,99174
2018-02-11T17:17:36.051Z,99176
2018-02-11T17:20:02.141Z,99178
2018-02-11T17:22:28.967Z,99181
2018-02-11T17:24:55.043Z,99174
2018-02-11T17:27:21.123Z,99183
2018-02-11T17:29:47.841Z,99181
2018-02-11T17:32:13.913Z,99191
2018-02-11T17:34:40.732Z,99197
2018-02-11T17:37:06.817Z,99215
2018-02-11T17:39:32.915Z,99197
2018-02-11T17:41:59.012Z,99207
2018-02-11T17:44:25.105Z,99213
2018-02-11T17:46:51.177Z,99215
2018-02-11T17:49:18.006Z,99212
2018-02-11T17:51:44.090Z,99215
2018-02-11T17:54:10.161Z,99221
2018-02-11T17:56:36.253Z,99228
2018-02-11T17:59:02.405Z,99224
2018-02-11T18:01:28.485Z,99228
2018-02-11T18:03:54.557Z,99238
2018-02-11T18:06:20.633Z,99239
2018-02-11T18:08:46.730Z,99246
2018-02-11T18:11:12.800Z,99232
2018-02-11T18:13:38.878Z,99232
2018-02-11T18:16:05.710Z,99238
2018-02-11T18:18:32.536Z,99240
2018-02-11T18:21:05.485Z,99249
2018-02-11T18:23:31.553Z,99248
2018-02-11T18:25:57.949Z,99269
2018-02-11T18:28:24.041Z,99270
2018-02-11T18:30:50.124Z,99264
2018-02-11T18:33:16.208Z,99275
2018-02-11T18:35:42.297Z,99267
2018-02-11T18:38:08.365Z,99269
2018-02-11T18:40:34.435Z,99276
2018-02-11T18:43:00.509Z,99267
2018-02-11T18:45:26.587Z,99274
2018-02-11T18:47:53.433Z,99270
2018-02-11T18:50:19.518Z,99286
2018-02-11T18:52:45.594Z,99289
2018-02-11T18:55:12.873Z,99287
2018-02-11T18:57:39.169Z,99290
2018-02-11T19:00:05.625Z,99297
2018-02-11T19:02:31.709Z,99280
2018-02-11T19:04:57.789Z,99292
2018-02-11T19:07:23.873Z,99294
2018-02-11T19:09:50.249Z,99290
2018-02-11T19:12:16.378Z,99300
2018-02-11T19:14:42.453Z,99308
2018-02-11T19:17:08.560Z,99299
2018-02-11T19:19:34.666Z,99305
2018-02-11T19:22:00.763Z,99306
2018-02-11T19:24:26.849Z,99300
2018-02-11T19:26:53.410Z,99311
2018-02-11T19:29:19.516Z,99307
2018-02-11T19:31:45.618Z,99304
2018-02-11T19:34:11.693Z,99307
2018-02-11T19:36:38.579Z,99310
2018-02-11T19:39:04.742Z,99320
2018-02-11T19:41:30.822Z,99314
2018-02-11T19:43:56.933Z,99311
2018-02-11T19:46:23.006Z,99321
2018-02-11T19:48:49.093Z,99319
2018-02-11T19:51:15.852Z,99320
2018-02-11T19:53:41.927Z,99328
2018-02-11T19:56:08.225Z,99329
2018-02-11T19:58:34.324Z,99334
2018-02-11T20:01:00.605Z,99343
2018-02-11T20:03:27.456Z,99334
2018-02-11T20:05:53.545Z,99344
2018-02-11T20:08:19.626Z,99352
2018-02-11T20:10:45.704Z,99357
2018-02-11T20:13:11.797Z,99367
2018-02-11T20:15:38.115Z,99364
2018-02-11T20:18:04.204Z,99360
2018-02-11T20:20:31.345Z,99371
2018-02-11T20:22:58.187Z,99371
2018-02-11T20:25:24.281Z,99371
2018-02-11T20:27:50.375Z,99372
2018-02-11T20:30:18.261Z,99368
2018-02-11T20:32:44.369Z,99365
2018-02-11T20:35:15.189Z,99365
2018-02-11T20:37:41.753Z,99366
2018-02-11T20:40:07.831Z,99364
2018-02-11T20:42:36.132Z,99372
2018-02-11T20:45:02.285Z,99367
2018-02-11T20:47:28.376Z,99370
2018-02-11T20:49:55.057Z,99377
2018-02-11T20:52:21.150Z,99382
2018-02-11T20:54:47.621Z,99382
2018-02-11T20:57:13.777Z,99383
2018-02-11T20:59:40.608Z,99383
2018-02-11T21:02:06.693Z,99381
2018-02-11T21:04:32.772Z,99394
2018-02-11T21:06:58.869Z,99385
2018-02-11T21:09:24.962Z,99392
2018-02-11T21:11:51.045Z,99390
2018-02-11T21:14:17.153Z,99386
2018-02-11T21:16:43.238Z,99382
2018-02-11T21:19:09.313Z,99394
2018-02-11T21:21:35.401Z,99396
2018-02-11T21:24:01.507Z,99391
2018-02-11T21:26:27.839Z,99389
2018-02-11T21:28:53.918Z,99393
2018-02-11T21:31:20.036Z,99401
2018-02-11T21:33:46.128Z,99390
2018-02-11T21:36:12.230Z,99392
2018-02-11T21:38:38.310Z,99398
2018-02-11T21:41:04.397Z,99405
2018-02-11T21:43:30.542Z,99403
2018-02-11T21:45:56.634Z,99408
2018-02-11T21:48:22.737Z,99424
2018-02-11T21:50:48.825Z,99413
2018-02-11T21:53:14.973Z,99427
2018-02-11T21:55:41.089Z,99416
2018-02-11T21:58:07.166Z,99429
2018-02-11T22:00:33.262Z,99416
2018-02-11T22:02:59.384Z,99428
2018-02-11T22:05:25.473Z,99420
2018-02-11T22:07:51.561Z,99424
2018-02-11T22:10:17.641Z,99419
2018-02-11T22:12:50.773Z,99420
2018-02-11T22:15:16.858Z,99416
2018-02-11T22:17:42.989Z,99423
2018-02-11T22:20:09.091Z,99429
2018-02-11T22:22:35.229Z,99428
2018-02-11T22:25:01.726Z,99429
2018-02-11T22:27:27.842Z,99434
2018-02-11T22:29:53.942Z,99435
2018-02-11T22:32:20.049Z,99436
2018-02-11T22:34:46.139Z,99436
2018-02-11T22:37:12.218Z,99423
2018-02-11T22:39:38.313Z,99429
2018-02-11T22:42:04.409Z,99431
2018-02-11T22:44:30.506Z,99441
2018-02-11T22:46:57.323Z,99438
2018-02-11T22:49:23.393Z,99449
2018-02-11T22:51:49.489Z,99441
2018-02-11T22:54:15.929Z,99449
2018-02-11T22:56:42.749Z,99451
2018-02-11T22:59:08.829Z,99452
2018-02-11T23:01:34.915Z,99457
2018-02-11T23:04:01.001Z,99449
2018-02-11T23:06:27.093Z,99454
2018-02-11T23:08:53.165Z,99463
2018-02-11T23:11:19.345Z,99472
2018-02-11T23:13:45.418Z,99468
2018-02-11T23:16:11.502Z,99466
2018-02-11T23:18:37.570Z,99470
2018-02-11T23:21:03.645Z,99469
2018-02-11T23:23:29.737Z,99463
2018-02-11T23:25:55.816Z,99465
2018-02-11T23:28:21.901Z,99465
2018-02-11T23:30:48.725Z,99461
2018-02-11T23:33:15.538Z,99465
2018-02-11T23:35:41.632Z,99468
2018-02-11T23:38:07.709Z,99474
2018-02-11T23:40:33.777Z,99469
2018-02-11T23:42:59.881Z,99482
2018-02-11T23:45:26.719Z,99478
2018-02-11T23:47:52.796Z,99475
2018-02-11T23:50:18.885Z,99485
2018-02-11T23:52:44.949Z,99487
2018-02-11T23:55:11.038Z,99478
2018-02-11T23:57:38.265Z,99498
